Time;durP1;ratioP1;P1;durP2;ratioP2;P2;SDS_P1;SDS_P2;PMS_P1;PMS_P2;Temp;Humidity;BMP_temperature;BMP_pressure;BME280_temperature;BME280_humidity;BME280_pressure;Samples;Min_cycle;Max_cycle;Signal;HPM_P1;HPM_P2
2022/01/26 00:08:01;;;;;;;218.70;93.45;;;;;;;-11.46;72.10;98609.72;10373445;28;20083;-59
2022/01/26 00:13:00;;;;;;;223.32;97.70;;;;;;;-11.55;72.29;98604.69;10373859;28;20060;-59
2022/01/26 00:17:59;;;;;;;238.88;97.55;;;;;;;-11.57;72.90;98605.28;10373394;28;20033;-59
2022/01/26 00:23:47;;;;;;;272.42;120.75;;;;;;;-11.59;72.63;98607.59;10369660;28;20495;-59
2022/01/26 00:28:32;;;;;;;282.75;118.45;;;;;;;-11.64;72.25;98613.78;10373322;28;20073;-59
2022/01/26 00:38:49;;;;;;;258.67;111.28;;;;;;;-11.63;71.27;98588.00;10373093;28;20075;-59
2022/01/26 00:43:55;;;;;;;162.20;73.53;;;;;;;-12.17;71.63;98587.72;10373080;28;20056;-59
2022/01/26 00:48:54;;;;;;;145.60;64.78;;;;;;;-12.41;71.00;98586.16;10373402;28;20056;-60
2022/01/26 00:54:11;;;;;;;132.20;60.35;;;;;;;-12.62;71.01;98604.00;10369879;28;20025;-59
2022/01/26 00:59:11;;;;;;;132.32;58.55;;;;;;;-12.78;71.34;98589.91;10373144;28;20064;-59
2022/01/26 01:04:10;;;;;;;138.73;61.42;;;;;;;-12.85;71.02;98587.53;10372670;28;20412;-59
2022/01/26 01:09:09;;;;;;;137.15;60.92;;;;;;;-12.71;71.42;98608.94;10371867;28;20299;-59
2022/01/26 01:14:09;;;;;;;143.55;66.22;;;;;;;-13.17;71.46;98525.22;10373350;28;20472;-60
2022/01/26 01:19:18;;;;;;;149.60;67.07;;;;;;;-12.55;72.14;98599.75;10372577;28;20367;-59
2022/01/26 01:34:27;;;;;;;152.73;69.70;;;;;;;-11.95;73.01;98590.75;10380280;28;20490;-59
2022/01/26 01:39:26;;;;;;;176.57;76.93;;;;;;;-11.79;72.65;98572.22;10379511;28;20060;-59
2022/01/26 01:44:26;;;;;;;165.82;75.00;;;;;;;-11.66;72.19;98581.09;10379436;28;20127;-59
2022/01/26 01:49:25;;;;;;;196.38;88.22;;;;;;;-12.23;72.15;98449.56;10379291;28;20071;-59
2022/01/26 01:54:25;;;;;;;160.30;77.00;;;;;;;-11.62;72.35;98563.13;10376263;28;20060;-59
2022/01/26 01:59:32;;;;;;;206.88;95.90;;;;;;;-11.57;73.50;98548.56;10379098;28;20056;-59
2022/01/26 02:04:31;;;;;;;205.38;85.30;;;;;;;-11.47;73.64;98552.81;10378208;28;20092;-59
2022/01/26 02:09:30;;;;;;;152.63;73.22;;;;;;;-11.36;72.69;98542.22;10377210;28;20043;-59
2022/01/26 02:14:34;;;;;;;142.40;66.65;;;;;;;-11.26;73.23;98524.78;10378134;28;20025;-59
2022/01/26 03:02:02;;;;;;;151.90;73.82;;;;;;;-10.04;72.04;98489.25;10376072;28;20075;-59
2022/01/26 03:12:06;;;;;;;167.32;74.78;;;;;;;-9.73;71.54;98497.91;10376146;28;20068;-59
2022/01/26 03:17:31;;;;;;;152.85;73.65;;;;;;;-9.86;71.67;98515.13;10375968;28;20401;-59
2022/01/26 03:37:52;;;;;;;150.77;70.10;;;;;;;-9.84;72.48;98501.09;10375515;28;20522;-59
2022/01/26 03:42:51;;;;;;;145.05;68.55;;;;;;;-9.80;72.61;98495.59;10374482;28;20076;-59
2022/01/26 03:47:50;;;;;;;150.35;74.47;;;;;;;-9.63;72.66;98506.28;10374998;28;20028;-59
2022/01/26 03:52:50;;;;;;;154.75;74.70;;;;;;;-9.57;72.21;98499.25;10374247;28;20029;-59
2022/01/26 03:57:49;;;;;;;163.93;77.10;;;;;;;-9.66;72.17;98480.88;10371547;28;20072;-59
2022/01/26 04:02:48;;;;;;;188.85;90.30;;;;;;;-9.60;72.37;98496.50;10374239;28;20025;-60
2022/01/26 04:07:47;;;;;;;;;;;;;;;-9.59;72.68;98495.72;10373327;28;20045;-59
2022/01/26 04:12:46;;;;;;;169.67;78.73;;;;;;;-10.04;72.68;98421.47;10374590;28;19999;-59
2022/01/26 04:17:45;;;;;;;182.80;92.28;;;;;;;-9.62;72.15;98487.94;10373841;28;20090;-59
2022/01/26 04:23:05;;;;;;;162.20;70.13;;;;;;;-9.67;72.43;98485.00;10373987;28;20067;-59
2022/01/26 04:28:08;;;;;;;149.68;72.57;;;;;;;-9.74;72.80;98477.69;10373463;28;20094;-59
2022/01/26 04:33:08;;;;;;;165.85;79.50;;;;;;;-9.61;72.92;98482.19;10371100;28;20468;-59
2022/01/26 04:38:16;;;;;;;226.20;106.32;;;;;;;-9.46;72.78;98485.16;10373711;28;20071;-59
2022/01/26 04:43:20;;;;;;;171.65;82.22;;;;;;;-9.37;72.63;98474.25;10373224;28;20186;-59
2022/01/26 04:48:19;;;;;;;159.93;71.93;;;;;;;-9.32;72.09;98483.06;10372229;28;20926;-59
2022/01/26 04:53:18;;;;;;;152.73;71.35;;;;;;;-9.23;72.60;98482.09;10373153;28;20083;-59
2022/01/26 04:58:18;;;;;;;147.25;69.93;;;;;;;-9.24;72.45;98468.66;10373313;28;20490;-60
2022/01/26 05:03:17;;;;;;;167.38;81.68;;;;;;;-9.37;72.66;98429.00;10371919;28;20073;-60
2022/01/26 05:08:16;;;;;;;;;;;;;;;-8.87;72.06;98482.78;10380238;28;20138;-60
2022/01/26 05:13:16;;;;;;;177.30;84.30;;;;;;;-8.86;73.00;98484.53;10379368;28;20438;-60
2022/01/26 05:18:15;;;;;;;193.93;95.95;;;;;;;-8.76;72.30;98481.16;10378744;28;20076;-60
2022/01/26 05:23:13;;;;;;;;;;;;;;;-8.81;72.36;98489.06;10379163;28;20067;-59
2022/01/26 05:28:12;;;;;;;148.07;74.63;;;;;;;-8.87;72.11;98482.78;10377988;28;19912;-59
2022/01/26 05:33:11;;;;;;;;;;;;;;;-8.76;72.41;98482.81;10375183;28;20290;-59
2022/01/26 05:38:10;;;;;;;154.40;73.67;;;;;;;-8.65;71.53;98469.50;10377833;28;19959;-60
2022/01/26 05:43:09;;;;;;;;;;;;;;;-8.52;73.00;98467.25;10375567;28;20037;-60
2022/01/26 05:48:11;;;;;;;155.07;79.27;;;;;;;-8.55;72.32;98438.44;10376826;28;20399;-59
2022/01/26 05:53:10;;;;;;;211.73;102.45;;;;;;;-8.48;71.60;98451.66;10378634;28;20053;-60
2022/01/26 05:58:09;;;;;;;;;;;;;;;-8.46;71.69;98460.22;10378598;28;20039;-60
2022/01/26 06:03:08;;;;;;;250.50;114.43;;;;;;;-9.05;72.34;98368.06;10373292;28;20666;-60
2022/01/26 06:08:07;;;;;;;201.73;99.75;;;;;;;-9.05;71.88;98350.44;10374190;28;20064;-60
2022/01/26 06:13:06;;;;;;;;;;;;;;;-8.47;72.16;98465.13;10374253;28;20064;-60
2022/01/26 06:18:05;;;;;;;161.90;81.13;;;;;;;-8.55;71.53;98449.38;10375388;28;19995;-59
2022/01/26 06:23:05;;;;;;;141.10;68.68;;;;;;;-8.97;72.71;98377.09;10373583;28;20080;-60
2022/01/26 06:28:08;;;;;;;123.05;62.28;;;;;;;-8.52;71.76;98459.69;10375297;28;20072;-60
2022/01/26 06:33:08;;;;;;;117.80;57.63;;;;;;;-8.52;72.20;98444.59;10374019;28;20052;-59
2022/01/26 06:38:07;;;;;;;112.05;55.40;;;;;;;-8.43;72.29;98469.66;10375399;28;20068;-60
2022/01/26 06:43:14;;;;;;;;;;;;;;;-8.26;71.43;98469.47;10374483;28;20067;-60
2022/01/26 06:53:31;;;;;;;114.22;54.40;;;;;;;-7.95;71.49;98466.03;10375112;28;20060;-59
2022/01/26 06:58:30;;;;;;;;;;;;;;;-7.71;70.74;98464.66;10375144;28;20037;-60
2022/01/26 07:03:29;;;;;;;121.43;60.10;;;;;;;-7.55;71.17;98470.19;10374724;28;20455;-59
2022/01/26 07:08:28;;;;;;;;;;;;;;;-7.34;71.08;98462.56;10375771;28;20537;-59
2022/01/26 07:13:27;;;;;;;112.05;55.47;;;;;;;-7.18;69.85;98474.00;10374758;28;20116;-59
2022/01/26 07:23:44;;;;;;;162.50;78.80;;;;;;;-6.82;69.74;98470.03;10374414;28;20074;-60
2022/01/26 07:28:43;;;;;;;163.48;80.32;;;;;;;-6.78;68.06;98472.03;10374388;28;20037;-60
2022/01/26 07:33:43;;;;;;;202.35;101.65;;;;;;;-7.28;68.05;98389.94;10374057;28;20065;-60
2022/01/26 07:38:42;;;;;;;;;;;;;;;-6.77;68.61;98473.78;10374553;28;20065;-60
2022/01/26 07:43:40;;;;;;;181.80;90.40;;;;;;;-6.74;68.42;98461.44;10373821;28;19920;-59
2022/01/26 07:48:40;;;;;;;173.95;93.28;;;;;;;-6.62;68.30;98469.06;10372901;28;20518;-60
2022/01/26 07:53:39;;;;;;;184.80;98.90;;;;;;;-6.54;68.19;98474.69;10372822;28;20061;-59
2022/01/26 07:58:40;;;;;;;189.63;102.53;;;;;;;-6.79;68.23;98456.78;10373380;28;20396;-60
2022/01/26 08:03:39;;;;;;;162.25;85.50;;;;;;;-7.33;68.27;98391.22;10371664;28;20075;-60
2022/01/26 08:08:38;;;;;;;166.05;82.15;;;;;;;-7.22;68.38;98440.84;10372395;28;20036;-59
2022/01/26 08:13:38;;;;;;;159.52;83.72;;;;;;;-7.05;69.59;98457.31;10372472;28;20128;-60
2022/01/26 08:18:37;;;;;;;138.98;73.47;;;;;;;-6.79;69.52;98472.78;10372674;28;20089;-60
2022/01/26 08:23:37;;;;;;;142.43;75.60;;;;;;;-6.62;68.35;98475.75;10372271;28;20033;-60
2022/01/26 08:28:39;;;;;;;154.25;79.93;;;;;;;-6.50;68.66;98484.28;10371784;28;20064;-60
2022/01/26 08:33:38;;;;;;;158.73;86.80;;;;;;;-6.21;68.74;98475.50;10371014;28;20060;-60
2022/01/26 08:38:37;;;;;;;153.10;84.05;;;;;;;-5.97;68.29;98479.88;10372480;28;20087;-59
2022/01/26 08:43:36;;;;;;;163.75;88.35;;;;;;;-5.92;67.88;98478.59;10380270;28;20492;-60
2022/01/26 08:48:35;;;;;;;179.32;101.32;;;;;;;-5.86;67.19;98472.22;10379927;28;20064;-60
2022/01/26 08:53:34;;;;;;;145.38;74.13;;;;;;;-5.61;67.05;98477.41;10378158;28;20055;-60
2022/01/26 08:58:33;;;;;;;126.47;68.10;;;;;;;-5.81;66.22;98446.50;10379647;28;20037;-60
2022/01/26 09:03:38;;;;;;;142.70;76.97;;;;;;;-6.07;66.60;98395.72;10378878;28;20082;-60
2022/01/26 09:08:39;;;;;;;136.93;75.45;;;;;;;-5.78;66.36;98484.63;10379441;28;20068;-60
2022/01/26 09:13:38;;;;;;;142.07;77.50;;;;;;;-5.72;66.27;98481.69;10379057;28;20440;-60
2022/01/26 09:23:37;;;;;;;163.35;89.38;;;;;;;-5.35;66.42;98494.53;10379739;28;20079;-59
2022/01/26 09:28:36;;;;;;;144.15;84.45;;;;;;;-5.21;65.83;98485.38;10378731;28;20065;-60
2022/01/26 09:33:34;;;;;;;139.50;77.82;;;;;;;-4.97;65.92;98483.75;10378478;28;20032;-60
2022/01/26 09:38:34;;;;;;;132.35;77.63;;;;;;;-4.67;65.16;98485.03;10378400;28;20029;-60
2022/01/26 09:43:33;;;;;;;132.43;77.55;;;;;;;-4.47;63.57;98479.66;10377967;28;20057;-59
2022/01/26 09:48:34;;;;;;;134.25;75.20;;;;;;;-4.14;63.84;98474.28;10378001;28;20056;-60
2022/01/26 09:53:35;;;;;;;162.95;90.72;;;;;;;-3.75;64.51;98453.25;10376080;28;20079;-59
2022/01/26 09:58:35;;;;;;;187.23;105.57;;;;;;;-3.45;61.45;98458.56;10377228;28;20460;-60
2022/01/26 10:03:35;;;;;;;174.00;99.55;;;;;;;-3.27;60.69;98461.41;10377231;28;20099;-60
2022/01/26 10:19:05;;;;;;;169.93;97.10;;;;;;;-3.34;59.86;98435.66;10376805;28;20060;-59
2022/01/26 10:24:09;;;;;;;133.10;78.35;;;;;;;-3.46;58.11;98446.66;10377006;28;20068;-60
2022/01/26 10:29:08;;;;;;;101.13;56.47;;;;;;;-3.39;57.49;98442.09;10375509;28;20465;-60
2022/01/26 10:34:13;;;;;;;90.88;52.13;;;;;;;-3.23;57.90;98433.78;10375953;28;20437;-60
2022/01/26 10:39:49;;;;;;;86.60;50.83;;;;;;;-3.48;56.02;98382.25;10376240;28;20067;-60
2022/01/26 10:44:50;;;;;;;87.70;51.78;;;;;;;-2.93;56.37;98378.09;10375252;28;20069;-60
2022/01/26 10:54:50;;;;;;;115.20;66.97;;;;;;;-1.90;55.32;98428.34;10374440;28;20021;-60
2022/01/26 10:59:49;;;;;;;122.53;72.00;;;;;;;-1.48;55.96;98426.50;10375658;28;20519;-60
2022/01/26 11:04:49;;;;;;;125.18;75.72;;;;;;;-1.17;54.86;98424.81;10373723;28;20099;-60
2022/01/26 11:09:49;;;;;;;139.25;87.40;;;;;;;-1.28;54.00;98353.81;10375014;28;20065;-60
2022/01/26 11:14:51;;;;;;;136.52;88.53;;;;;;;-0.92;53.85;98402.44;10373563;28;20049;-59
2022/01/26 11:19:50;;;;;;;152.48;93.93;;;;;;;-0.79;52.44;98393.78;10374433;28;20079;-60
2022/01/26 11:24:49;;;;;;;171.85;108.57;;;;;;;-0.89;52.61;98349.09;10374383;28;20062;-60
2022/01/26 11:29:53;;;;;;;168.27;109.90;;;;;;;-0.33;51.89;98387.69;10374466;28;20075;-59
2022/01/26 11:34:53;;;;;;;165.80;106.43;;;;;;;-0.94;50.46;98279.19;10374206;28;20215;-59
2022/01/26 11:45:36;;;;;;;208.45;124.38;;;;;;;-0.08;50.35;98372.84;10373711;28;20075;-59
2022/01/26 11:50:45;;;;;;;189.20;122.78;;;;;;;-0.25;50.77;98323.53;10372988;28;20064;-60
2022/01/26 11:55:57;;;;;;;161.85;99.82;;;;;;;0.08;50.57;98354.09;10373030;28;20056;-60
2022/01/26 12:01:26;;;;;;;145.75;85.43;;;;;;;0.19;51.94;98352.03;10372166;28;20071;-60
2022/01/26 12:06:29;;;;;;;120.47;75.43;;;;;;;0.16;50.75;98349.34;10373721;28;20080;-60
2022/01/26 12:11:29;;;;;;;120.63;75.05;;;;;;;0.31;50.28;98349.22;10371988;28;20401;-60
2022/01/26 12:16:42;;;;;;;130.88;76.05;;;;;;;0.24;49.96;98351.50;10372430;28;20492;-60
2022/01/26 12:37:54;;;;;;;154.73;96.93;;;;;;;0.58;50.24;98332.69;10373109;28;19960;-60
2022/01/26 12:43:02;;;;;;;165.27;100.43;;;;;;;-0.34;50.34;98149.69;10371235;28;20061;-60
2022/01/26 12:48:02;;;;;;;172.80;110.88;;;;;;;0.36;50.07;98264.41;10372210;28;20056;-60
2022/01/26 12:53:00;;;;;;;;;;;;;;;0.63;50.34;98322.69;10372998;28;20055;-60
2022/01/26 12:57:59;;;;;;;182.23;113.57;;;;;;;0.49;51.04;98332.25;10370995;28;19991;-60
2022/01/26 13:03:08;;;;;;;177.40;113.93;;;;;;;0.44;50.75;98324.34;10371771;28;20031;-60
2022/01/26 13:08:10;;;;;;;197.93;120.63;;;;;;;0.47;51.38;98324.53;10371778;28;20076;-60
2022/01/26 13:13:09;;;;;;;211.52;134.40;;;;;;;0.58;51.94;98322.47;10371935;28;20176;-60
2022/01/26 13:18:43;;;;;;;297.27;174.55;;;;;;;0.50;51.74;98292.25;10371910;28;20092;-60
2022/01/26 13:23:56;;;;;;;250.18;155.00;;;;;;;0.77;52.71;98313.13;10370057;28;20122;-60
2022/01/26 13:39:47;;;;;;;232.25;141.82;;;;;;;0.34;53.01;98322.19;10379038;28;20068;-60
2022/01/26 13:59:51;;;;;;;142.07;87.65;;;;;;;-0.13;55.56;98323.28;10377956;28;20547;-60
2022/01/26 14:04:50;;;;;;;148.75;92.72;;;;;;;-0.17;56.45;98327.34;10376973;28;20091;-60
2022/01/26 14:09:49;;;;;;;168.02;103.45;;;;;;;-0.29;56.67;98331.81;10377238;28;20031;-60
2022/01/26 14:14:53;;;;;;;176.10;109.85;;;;;;;-0.70;56.78;98281.28;10376992;28;20033;-60
2022/01/26 14:20:08;;;;;;;166.07;98.60;;;;;;;-1.16;56.25;98254.28;10377081;28;20089;-60
2022/01/26 14:25:25;;;;;;;174.88;101.97;;;;;;;-0.90;56.16;98337.16;10377110;28;20563;-59
2022/01/26 16:35:27;;;;;;;200.23;124.93;;;;;;;-1.65;62.03;98377.19;10372504;28;20067;-60
2022/01/26 17:21:15;;;;;;;287.75;157.20;;;;;;;-1.71;64.23;98452.31;10380195;28;20076;-60
2022/01/26 18:16:01;;;;;;;454.50;274.00;;;;;;;-1.90;66.13;98413.06;10375671;28;20071;-59
2022/01/26 18:52:44;;;;;;;397.83;234.23;;;;;;;-1.82;67.90;98473.69;10334525;28;20067;-60
2022/01/26 18:57:43;;;;;;;;;;;;;;;-1.68;67.62;98490.63;10338424;28;20056;-60
2022/01/26 19:02:42;;;;;;;342.50;203.13;;;;;;;-1.64;67.83;98493.47;10374951;28;19909;-61
2022/01/26 19:07:41;;;;;;;349.58;204.75;;;;;;;-1.61;68.16;98494.44;10374845;28;20067;-60
2022/01/26 19:12:42;;;;;;;370.30;213.18;;;;;;;-1.97;68.29;98427.91;10374800;28;20068;-60
2022/01/26 19:17:54;;;;;;;349.77;211.90;;;;;;;-1.61;68.17;98486.78;10374283;28;20067;-60
2022/01/26 19:28:11;;;;;;;374.58;226.18;;;;;;;-1.66;68.40;98489.06;10370449;28;20067;-60
2022/01/26 19:39:59;;;;;;;336.92;202.63;;;;;;;-2.07;69.33;98459.53;10373917;28;20492;-60
2022/01/26 19:54:48;;;;;;;218.95;125.90;;;;;;;-2.21;71.43;98496.84;10371962;28;20093;-60
2022/01/26 19:59:48;;;;;;;176.38;95.10;;;;;;;-2.46;71.64;98468.16;10368260;28;20064;-60
2022/01/26 20:04:47;;;;;;;154.93;85.15;;;;;;;-2.24;71.20;98491.59;10372006;28;20480;-59
2022/01/26 20:09:52;;;;;;;142.00;80.78;;;;;;;-2.25;71.13;98482.19;10372507;28;20111;-59
2022/01/26 20:14:51;;;;;;;154.02;85.07;;;;;;;-2.22;71.46;98489.13;10370793;28;20557;-59
2022/01/26 20:19:50;;;;;;;155.88;85.35;;;;;;;-2.19;71.34;98474.94;10362700;28;20083;-60
2022/01/26 20:24:49;;;;;;;140.45;82.13;;;;;;;-2.14;70.88;98483.72;10372868;28;20068;-59
2022/01/26 20:29:57;;;;;;;152.38;83.90;;;;;;;-2.44;71.83;98489.47;10371736;28;20894;-60
2022/01/26 20:34:56;;;;;;;147.25;83.43;;;;;;;-2.53;71.16;98451.66;10372360;28;20526;-60
2022/01/26 20:39:55;;;;;;;136.18;76.90;;;;;;;-2.59;71.81;98492.84;10379538;28;20082;-59
2022/01/26 20:44:55;;;;;;;137.13;78.03;;;;;;;-2.50;71.66;98490.88;10379554;28;20072;-59
2022/01/26 20:49:54;;;;;;;142.80;80.93;;;;;;;-2.53;71.68;98485.56;10380886;28;20510;-59
2022/01/26 20:54:53;;;;;;;176.32;98.55;;;;;;;-2.40;71.60;98487.22;10379365;28;20490;-59
2022/01/26 20:59:53;;;;;;;190.35;109.00;;;;;;;-2.24;71.69;98491.59;10378593;28;20033;-59
2022/01/26 21:04:52;;;;;;;250.35;138.57;;;;;;;-2.62;71.43;98410.44;10379016;28;20405;-59
2022/01/26 21:09:51;;;;;;;263.40;143.77;;;;;;;-2.13;71.22;98490.53;10379322;28;20527;-59
2022/01/26 21:14:51;;;;;;;299.95;163.88;;;;;;;-2.11;71.31;98486.44;10376937;28;20064;-59
2022/01/26 21:19:50;;;;;;;335.52;187.80;;;;;;;-2.02;71.01;98503.91;10374760;28;20071;-59
2022/01/26 21:24:49;;;;;;;337.10;194.30;;;;;;;-1.96;71.88;98495.75;10378472;28;20108;-59
2022/01/26 21:29:48;;;;;;;334.73;186.15;;;;;;;-2.43;71.15;98399.72;10378154;28;20059;-59
2022/01/26 21:34:48;;;;;;;322.88;182.85;;;;;;;-1.82;71.28;98501.69;10376581;28;20068;-60
2022/01/26 21:39:47;;;;;;;;;;;;;;;-1.81;72.03;98490.72;10376342;28;20167;-59
2022/01/26 21:44:46;;;;;;;296.90;163.52;;;;;;;-2.10;71.50;98437.34;10375970;28;19913;-59
2022/01/26 21:49:47;;;;;;;320.50;178.75;;;;;;;-1.77;71.52;98480.81;10373323;28;20608;-60
2022/01/26 21:54:46;;;;;;;319.30;181.07;;;;;;;-1.97;71.98;98488.94;10377920;28;20061;-60
2022/01/26 21:59:45;;;;;;;334.48;183.07;;;;;;;-2.00;72.68;98483.69;10376799;28;20072;-59
2022/01/26 22:04:44;;;;;;;324.88;178.48;;;;;;;-1.96;72.25;98477.97;10375664;28;20053;-59
2022/01/26 22:09:45;;;;;;;274.63;148.25;;;;;;;-1.97;72.89;98492.34;10376252;28;20068;-60
2022/01/26 22:14:44;;;;;;;233.93;131.57;;;;;;;-2.13;72.65;98484.59;10374307;28;20068;-60
2022/01/26 22:19:43;;;;;;;267.35;147.57;;;;;;;-2.37;72.69;98428.06;10375897;28;20032;-59
2022/01/26 22:24:42;;;;;;;289.48;159.13;;;;;;;-2.15;73.40;98469.25;10372044;28;20427;-60
2022/01/26 22:29:41;;;;;;;215.32;119.00;;;;;;;-2.46;73.47;98458.00;10373990;28;20068;-60
2022/01/26 22:34:40;;;;;;;213.50;118.38;;;;;;;-2.28;73.03;98460.00;10375217;28;20029;-60
2022/01/26 22:39:39;;;;;;;247.45;132.32;;;;;;;-2.34;73.31;98464.69;10374130;28;20072;-60
2022/01/26 22:44:38;;;;;;;263.27;143.10;;;;;;;-2.37;73.79;98468.72;10375058;28;20032;-59
2022/01/26 22:49:37;;;;;;;262.58;143.00;;;;;;;-2.36;73.78;98448.50;10375094;28;20060;-60
2022/01/26 22:54:36;;;;;;;291.83;155.23;;;;;;;-2.20;73.47;98437.56;10370869;28;20499;-60
2022/01/26 22:59:35;;;;;;;328.58;185.85;;;;;;;-2.12;73.44;98440.59;10373997;28;20079;-60
2022/01/26 23:04:39;;;;;;;369.02;200.23;;;;;;;-2.23;73.77;98447.56;10374327;28;20056;-60
2022/01/26 23:09:38;;;;;;;295.65;162.35;;;;;;;-2.32;74.00;98441.94;10373017;28;20579;-60
2022/01/26 23:14:37;;;;;;;294.88;157.55;;;;;;;-2.22;73.59;98449.31;10374941;28;20415;-59
2022/01/26 23:19:36;;;;;;;240.65;128.18;;;;;;;-2.33;73.90;98456.31;10372128;28;20132;-59
2022/01/26 23:24:40;;;;;;;240.25;128.70;;;;;;;-2.35;74.15;98449.38;10365817;28;20048;-59
2022/01/26 23:29:47;;;;;;;203.65;113.00;;;;;;;-2.62;74.46;98400.28;10369254;28;20073;-59
2022/01/26 23:34:59;;;;;;;195.38;110.03;;;;;;;-2.28;74.07;98448.97;10372625;28;20064;-59
